Portada
METAR-TAF:

METAR-TAF

Aeropuertos :

Esmirna, Turquía

latitud: 38-30N, longitud: 027-01E, altitud: 5 m

METAR: falta

Hora: 05:03 (02:03 UTC)

Pronóstico

El informe se hizo hace 3 horas y 23 minutos, a las 22:40 UTC
Pronóstico válido del 23 a las 00 UTC al 23 a las 09 UTC
Viento 2 kt con dirección variable
Visibilidad 10 km o más
sin nubes por debajo de 1500 m y sin presencia de cumulonimbus.
Evolucionando progresivamente
del 23 a las 06 UTC al 23 a las 09 UTC
Viento 12 kt del oeste-noroeste

TAF: LTBL 222240Z 2300/2309 VRB02KT CAVOK BECMG 2306/2309 30012KT

Observaciones y pronósticos meteorológicos de más de 4000 aeropuertos (mensajes METAR y TAF).

Los puntos amarillos y rojos representan las estaciones disponibles.

Ponga el ratón en el punto deseado para ver el nombre de la estación.

Haga clic para ver las observaciones y los pronósticos meteorológicos.

Para cambiar el mapa : haga clic en los botones verdes con una cruz de color negro para hacer un zoom, en el botón verde con un guión para alejar o en las flechas verdes para mapas adyacentes.


METAR-TAF: